Weather History for Clermont County, Batavia, OH

Change the Weather History Date:

Sunday, May 25, 2014

  Actual Average (KLUK) Record (KLUK)
Temperature  
Mean Temperature 66 °F -  
Max Temperature 80 °F 76 °F 91 °F (1965)
Min Temperature 53 °F 56 °F 37 °F (1949)
Cooling Degree Days 2    
Growing Degree Days 16 (Base 50)    
Moisture  
Dew Point 51 °F    
Average Humidity 61    
Maximum Humidity 100    
Minimum Humidity 28    
Precipitation  
Precipitation 0.00 in - - ()
Sea Level Pressure  
Sea Level Pressure 30.15 in    
Wind  
Wind Speed 1 mph (SE)    
Max Wind Speed 10 mph    
Max Gust Speed -    
Visibility 10 miles    
Events      
Averages and records for this station are not official NWS values.
T = Trace of Precipitation, MM = Missing Value Source: NWS Daily Summary

Daily Weather History Graph

Daily Weather History Graph

Search for Another Location

Airport:

Trip Planner

Search our weather history database for the weather conditions in past years. The results will help you decide how hot, cold, wet, or windy it might be!

Date:

Astronomy

May. 25, 2014 Rise Set
Actual Time 6:16 AM EDT 8:51 PM EDT
Civil Twilight 5:45 AM EDT 9:22 PM EDT
Nautical Twilight 5:06 AM EDT 10:01 PM EDT
Astronomical Twilight 4:23 AM EDT 10:44 PM EDT
Moon 4:18 AM EDT (5/25) 5:52 PM EDT (5/25)
Length of Visible Light 15h 37m
Length of Day
14h 35m
Waning Crescent, 10% of the Moon is Illuminated
May 25
Waning Crescent
May 28
New
Jun 5
First Quarter
Jun 13
Full
Jun 19
Last Quarter

Hourly Weather History & Observations

Time (EDT) Temp. Dew Point Humidity Pressure Visibility Wind Dir Wind Speed Gust Speed Precip Events Conditions
12:16 AM 59.0 °F 53.6 °F 82% 30.17 in 10.0 mi Calm Calm - N/A   Clear
12:36 AM 60.8 °F 53.6 °F 77% 30.17 in 10.0 mi Calm Calm - N/A   Clear
12:57 AM 60.8 °F 55.4 °F 82% 30.16 in 10.0 mi Calm Calm - N/A   Clear
1:16 AM 59.0 °F 53.6 °F 82% 30.16 in 10.0 mi Calm Calm - N/A   Clear
1:36 AM 59.0 °F 53.6 °F 82% 30.16 in 10.0 mi Calm Calm - N/A   Clear
2:16 AM 57.2 °F 55.4 °F 94% 30.16 in 10.0 mi Calm Calm - N/A   Clear
2:36 AM 57.2 °F 55.4 °F 94% 30.16 in 10.0 mi Calm Calm - N/A   Clear
2:57 AM 59.0 °F 55.4 °F 88% 30.16 in 10.0 mi Calm Calm - N/A   Clear
3:16 AM 59.0 °F 55.4 °F 88% 30.16 in 10.0 mi Calm Calm - N/A   Clear
3:36 AM 57.2 °F 53.6 °F 88% 30.15 in 10.0 mi Calm Calm - N/A   Clear
3:57 AM 55.4 °F 53.6 °F 94% 30.15 in 10.0 mi Calm Calm - N/A   Clear
4:16 AM 55.4 °F 53.6 °F 94% 30.15 in 10.0 mi Calm Calm - N/A   Clear
4:36 AM 55.4 °F 53.6 °F 94% 30.15 in 7.0 mi Calm Calm - N/A   Clear
4:57 AM 55.4 °F 55.4 °F 100% 30.15 in 10.0 mi Calm Calm - N/A   Clear
5:16 AM 55.4 °F 53.6 °F 94% 30.15 in 10.0 mi Calm Calm - N/A   Clear
5:36 AM 55.4 °F 55.4 °F 100% 30.15 in 10.0 mi Calm Calm - N/A   Clear
5:57 AM 53.6 °F 53.6 °F 100% 30.16 in 10.0 mi Calm Calm - N/A   Clear
6:16 AM 53.6 °F 53.6 °F 100% 30.17 in 7.0 mi Calm Calm - N/A   Clear
6:37 AM 53.6 °F 53.6 °F 100% 30.17 in 10.0 mi Calm Calm - N/A   Clear
6:56 AM 55.4 °F 53.6 °F 94% 30.18 in 10.0 mi Calm Calm - N/A   Clear
7:16 AM 55.4 °F 53.6 °F 94% 30.18 in 10.0 mi Calm Calm - N/A   Clear
7:37 AM 57.2 °F 55.4 °F 94% 30.19 in 10.0 mi Calm Calm - N/A   Clear
8:16 AM 60.8 °F 57.2 °F 88% 30.20 in 10.0 mi Calm Calm - N/A   Clear
8:37 AM 64.4 °F 55.4 °F 73% 30.20 in 10.0 mi Calm Calm - N/A   Clear
8:56 AM 66.2 °F 55.4 °F 68% 30.20 in 10.0 mi Calm Calm - N/A   Clear
9:16 AM 68.0 °F 55.4 °F 64% 30.20 in 10.0 mi East 3.5 mph - N/A   Clear
9:37 AM 68.0 °F 53.6 °F 60% 30.20 in 10.0 mi SE 3.5 mph - N/A   Clear
9:56 AM 69.8 °F 55.4 °F 60% 30.19 in 10.0 mi Calm Calm - N/A   Clear
10:16 AM 69.8 °F 55.4 °F 60% 30.19 in 10.0 mi Calm Calm - N/A   Clear
11:16 AM 73.4 °F 53.6 °F 50% 30.19 in 10.0 mi ESE 9.2 mph - N/A   Clear
11:37 AM 73.4 °F 51.8 °F 47% 30.19 in 10.0 mi East 6.9 mph - N/A   Clear
11:56 AM 75.2 °F 51.8 °F 44% 30.19 in 10.0 mi ESE 10.4 mph - N/A   Clear
12:16 PM 75.2 °F 51.8 °F 44% 30.19 in 10.0 mi SSE 5.8 mph - N/A   Clear
12:37 PM 75.2 °F 50.0 °F 41% 30.18 in 10.0 mi East 6.9 mph - N/A   Clear
12:56 PM 77.0 °F 50.0 °F 39% 30.18 in 10.0 mi ESE 4.6 mph - N/A   Clear
1:16 PM 77.0 °F 50.0 °F 39% 30.18 in 10.0 mi East 5.8 mph - N/A   Clear
1:37 PM 77.0 °F 48.2 °F 36% 30.18 in 10.0 mi East 6.9 mph - N/A   Clear
1:56 PM 77.0 °F 50.0 °F 39% 30.17 in 10.0 mi South 4.6 mph - N/A   Clear
2:16 PM 77.0 °F 50.0 °F 39% 30.16 in 10.0 mi SSW 4.6 mph - N/A   Clear
2:37 PM 78.8 °F 50.0 °F 36% 30.16 in 10.0 mi SSE 4.6 mph - N/A   Clear
2:56 PM 78.8 °F 50.0 °F 36% 30.15 in 10.0 mi SSW 8.1 mph - N/A   Clear
3:16 PM 78.8 °F 50.0 °F 36% 30.15 in 10.0 mi SE 8.1 mph - N/A   Clear
3:37 PM 78.8 °F 50.0 °F 36% 30.15 in 10.0 mi SE 5.8 mph - N/A   Clear
3:56 PM 78.8 °F 50.0 °F 36% 30.14 in 10.0 mi East 8.1 mph - N/A   Clear
4:16 PM 78.8 °F 50.0 °F 36% 30.13 in 10.0 mi SSE 4.6 mph - N/A   Clear
4:37 PM 80.6 °F 50.0 °F 34% 30.13 in 10.0 mi SE 6.9 mph - N/A   Clear
4:56 PM 78.8 °F 48.2 °F 34% 30.12 in 10.0 mi Calm Calm - N/A   Clear
5:37 PM 80.6 °F 46.4 °F 30% 30.12 in 10.0 mi SSE 4.6 mph - N/A   Clear
5:56 PM 80.6 °F 46.4 °F 30% 30.11 in 10.0 mi South 4.6 mph - N/A   Clear
6:17 PM 78.8 °F 44.6 °F 30% 30.11 in 10.0 mi SW 4.6 mph - N/A   Clear
6:37 PM 78.8 °F 44.6 °F 30% 30.11 in 10.0 mi SW 3.5 mph - N/A   Clear
6:56 PM 78.8 °F 44.6 °F 30% 30.11 in 10.0 mi SSE 4.6 mph - N/A   Clear
7:17 PM 78.8 °F 42.8 °F 28% 30.11 in 10.0 mi Calm Calm - N/A   Clear
7:36 PM 78.8 °F 44.6 °F 30% 30.11 in 10.0 mi Calm Calm - N/A   Clear
7:56 PM 77.0 °F 44.6 °F 32% 30.10 in 10.0 mi Calm Calm - N/A   Clear
8:17 PM 77.0 °F 44.6 °F 32% 30.10 in 10.0 mi SSE 3.5 mph - N/A   Clear
8:36 PM 77.0 °F 44.6 °F 32% 30.10 in 10.0 mi Calm Calm - N/A   Clear
8:56 PM 73.4 °F 46.4 °F 38% 30.10 in 10.0 mi Calm Calm - N/A   Clear
9:17 PM 71.6 °F 50.0 °F 46% 30.10 in 10.0 mi Calm Calm - N/A   Clear
9:36 PM 69.8 °F 50.0 °F 49% 30.10 in 10.0 mi Calm Calm - N/A   Clear
9:56 PM 68.0 °F 50.0 °F 52% 30.11 in 10.0 mi Calm Calm - N/A   Clear
10:17 PM 68.0 °F 50.0 °F 52% 30.11 in 10.0 mi Calm Calm - N/A   Clear
10:36 PM 64.4 °F 51.8 °F 64% 30.11 in 10.0 mi Calm Calm - N/A   Clear
10:56 PM 64.4 °F 53.6 °F 68% 30.12 in 10.0 mi SSW 4.6 mph - N/A   Clear
11:17 PM 66.2 °F 51.8 °F 60% 30.11 in 10.0 mi Calm Calm - N/A   Clear
11:36 PM 62.6 °F 53.6 °F 72% 30.11 in 10.0 mi Calm Calm - N/A   Clear
11:56 PM 62.6 °F 53.6 °F 72% 30.11 in 10.0 mi Calm Calm - N/A   Clear